AAL4342 KBOS-KDCA
Flight info
| Callsign | AAL4342 |
|---|---|
| Flight time | 1h 11m |
| Altitude | 34000 |
| Route | SSOXS7 SSOXS Q167 ZIZZI KNUKK ATR LAFLN DEALE3 |
| Aircraft | A320/M-SDE3FGHIRWY/LB1 |
Departure
| Time | 2026-05-05 22:08 |
|---|---|
| Airport | Boston Logan International Airport (KBOS) |
Arrival
| Time | 2026-05-05 23:19 |
|---|---|
| Airport | Ronald Reagan Washington National Airport (KDCA) |
| Time | Latitude | Longitude | Altitude | Speed | Heading |
|---|---|---|---|---|---|
| 2026-05-05 21:39 | 42.36640 | -71.01383 | 27 ft | 0 kts | 245° |
| 2026-05-05 21:59 | 42.36648 | -71.01359 | 25 ft | 4 kts | 245° |
| 2026-05-05 22:00 | 42.36659 | -71.01326 | 24 ft | 4 kts | 249° |
| 2026-05-05 22:00 | 42.36666 | -71.01292 | 29 ft | 4 kts | 274° |
| 2026-05-05 22:00 | 42.36659 | -71.01266 | 26 ft | 4 kts | 346° |
| 2026-05-05 22:00 | 42.36650 | -71.01265 | 26 ft | 1 kts | 15° |
| 2026-05-05 22:02 | 42.36651 | -71.01264 | 26 ft | 0 kts | 15° |
| 2026-05-05 22:02 | 42.36663 | -71.01260 | 27 ft | 3 kts | 15° |
| 2026-05-05 22:03 | 42.36696 | -71.01248 | 27 ft | 6 kts | 15° |
| 2026-05-05 22:03 | 42.36751 | -71.01241 | 28 ft | 10 kts | 348° |
| 2026-05-05 22:03 | 42.36819 | -71.01283 | 27 ft | 11 kts | 356° |
| 2026-05-05 22:03 | 42.36885 | -71.01224 | 24 ft | 12 kts | 40° |
| 2026-05-05 22:04 | 42.36953 | -71.01145 | 25 ft | 14 kts | 40° |
| 2026-05-05 22:04 | 42.37047 | -71.01070 | 23 ft | 18 kts | 26° |
| 2026-05-05 22:04 | 42.37167 | -71.00991 | 22 ft | 20 kts | 26° |
| 2026-05-05 22:04 | 42.37300 | -71.00905 | 22 ft | 22 kts | 24° |
| 2026-05-05 22:05 | 42.37449 | -71.00834 | 23 ft | 23 kts | 21° |
| 2026-05-05 22:05 | 42.37601 | -71.00761 | 25 ft | 24 kts | 19° |
| 2026-05-05 22:05 | 42.37744 | -71.00692 | 29 ft | 13 kts | 20° |
| 2026-05-05 22:05 | 42.37829 | -71.00636 | 29 ft | 15 kts | 47° |
| 2026-05-05 22:06 | 42.37835 | -71.00572 | 28 ft | 0 kts | 105° |
| 2026-05-05 22:06 | 42.37835 | -71.00570 | 28 ft | 1 kts | 105° |
| 2026-05-05 22:06 | 42.37829 | -71.00540 | 27 ft | 5 kts | 105° |
| 2026-05-05 22:06 | 42.37813 | -71.00478 | 30 ft | 9 kts | 118° |
| 2026-05-05 22:07 | 42.37750 | -71.00487 | 27 ft | 14 kts | 200° |
| 2026-05-05 22:07 | 42.37445 | -71.00639 | 25 ft | 77 kts | 199° |
| 2026-05-05 22:07 | 42.36784 | -71.00967 | 36 ft | 121 kts | 202° |
| 2026-05-05 22:07 | 42.35953 | -71.01394 | 420 ft | 129 kts | 200° |
| 2026-05-05 22:08 | 42.35113 | -71.01765 | 985 ft | 128 kts | 188° |
| 2026-05-05 22:08 | 42.34213 | -71.01614 | 1552 ft | 137 kts | 165° |
| 2026-05-05 22:08 | 42.33417 | -71.00791 | 1960 ft | 162 kts | 143° |
| 2026-05-05 22:08 | 42.32647 | -70.99512 | 2146 ft | 187 kts | 141° |
| 2026-05-05 22:09 | 42.31786 | -70.98045 | 2361 ft | 213 kts | 138° |
| 2026-05-05 22:09 | 42.31191 | -70.96052 | 2888 ft | 247 kts | 103° |
| 2026-05-05 22:09 | 42.31375 | -70.93649 | 3507 ft | 263 kts | 85° |
| 2026-05-05 22:09 | 42.31380 | -70.91170 | 3896 ft | 269 kts | 115° |
| 2026-05-05 22:10 | 42.30468 | -70.89004 | 4392 ft | 262 kts | 144° |
| 2026-05-05 22:10 | 42.29047 | -70.87635 | 5134 ft | 248 kts | 167° |
| 2026-05-05 22:10 | 42.27417 | -70.87030 | 5971 ft | 243 kts | 178° |
| 2026-05-05 22:10 | 42.25746 | -70.86560 | 6741 ft | 248 kts | 178° |
| 2026-05-05 22:11 | 42.24041 | -70.86082 | 7496 ft | 253 kts | 178° |
| 2026-05-05 22:11 | 42.22297 | -70.85590 | 8219 ft | 259 kts | 177° |
| 2026-05-05 22:11 | 42.20501 | -70.85082 | 8939 ft | 266 kts | 176° |
| 2026-05-05 22:11 | 42.18670 | -70.84561 | 9656 ft | 272 kts | 176° |
| 2026-05-05 22:12 | 42.16819 | -70.84031 | 10288 ft | 279 kts | 175° |
| 2026-05-05 22:12 | 42.14843 | -70.83476 | 10529 ft | 301 kts | 175° |
| 2026-05-05 22:12 | 42.12712 | -70.82886 | 10711 ft | 324 kts | 175° |
| 2026-05-05 22:12 | 42.10399 | -70.82241 | 10902 ft | 345 kts | 174° |
| 2026-05-05 22:13 | 42.08048 | -70.81567 | 11422 ft | 352 kts | 173° |
| 2026-05-05 22:13 | 42.05639 | -70.80865 | 12054 ft | 357 kts | 173° |
| 2026-05-05 22:13 | 42.03194 | -70.80155 | 12700 ft | 360 kts | 173° |
| 2026-05-05 22:13 | 42.00726 | -70.79443 | 13389 ft | 364 kts | 173° |
| 2026-05-05 22:14 | 41.98237 | -70.78732 | 13968 ft | 368 kts | 173° |
| 2026-05-05 22:14 | 41.95754 | -70.78030 | 14529 ft | 370 kts | 173° |
| 2026-05-05 22:14 | 41.93222 | -70.77314 | 15122 ft | 372 kts | 173° |
| 2026-05-05 22:14 | 41.90672 | -70.76594 | 15714 ft | 374 kts | 173° |
| 2026-05-05 22:15 | 41.88118 | -70.75892 | 16298 ft | 375 kts | 176° |
| 2026-05-05 22:15 | 41.85524 | -70.75642 | 16894 ft | 371 kts | 186° |
| 2026-05-05 22:15 | 41.82967 | -70.76059 | 17501 ft | 368 kts | 197° |
| 2026-05-05 22:15 | 41.80540 | -70.77101 | 18111 ft | 366 kts | 207° |
| 2026-05-05 22:16 | 41.78305 | -70.78660 | 18632 ft | 367 kts | 212° |
| 2026-05-05 22:16 | 41.76069 | -70.80353 | 19178 ft | 370 kts | 212° |
| 2026-05-05 22:16 | 41.73807 | -70.82057 | 19700 ft | 374 kts | 212° |
| 2026-05-05 22:16 | 41.71527 | -70.83766 | 20221 ft | 378 kts | 212° |
| 2026-05-05 22:17 | 41.69224 | -70.85491 | 20721 ft | 381 kts | 213° |
| 2026-05-05 22:17 | 41.67108 | -70.87607 | 21181 ft | 380 kts | 228° |
| 2026-05-05 22:17 | 41.65334 | -70.90244 | 21623 ft | 383 kts | 231° |
| 2026-05-05 22:17 | 41.63562 | -70.92938 | 22053 ft | 387 kts | 231° |
| 2026-05-05 22:18 | 41.61780 | -70.95657 | 22478 ft | 390 kts | 231° |
| 2026-05-05 22:18 | 41.60002 | -70.98368 | 22904 ft | 394 kts | 231° |
| 2026-05-05 22:18 | 41.58187 | -71.01133 | 23330 ft | 397 kts | 231° |
| 2026-05-05 22:18 | 41.56354 | -71.03924 | 23709 ft | 400 kts | 231° |
| 2026-05-05 22:19 | 41.54509 | -71.06725 | 24059 ft | 403 kts | 231° |
| 2026-05-05 22:19 | 41.52650 | -71.09545 | 24418 ft | 405 kts | 231° |
| 2026-05-05 22:19 | 41.50808 | -71.12335 | 24758 ft | 407 kts | 231° |
| 2026-05-05 22:19 | 41.48928 | -71.15176 | 25090 ft | 409 kts | 231° |
| 2026-05-05 22:20 | 41.47032 | -71.18036 | 25427 ft | 412 kts | 231° |
| 2026-05-05 22:20 | 41.45130 | -71.20903 | 25737 ft | 414 kts | 231° |
| 2026-05-05 22:20 | 41.43209 | -71.23794 | 26058 ft | 417 kts | 231° |
| 2026-05-05 22:20 | 41.41276 | -71.26700 | 26389 ft | 419 kts | 231° |
| 2026-05-05 22:21 | 41.39341 | -71.29610 | 26712 ft | 422 kts | 231° |
| 2026-05-05 22:21 | 41.37385 | -71.32548 | 27018 ft | 424 kts | 231° |
| 2026-05-05 22:21 | 41.35445 | -71.35463 | 27312 ft | 427 kts | 231° |
| 2026-05-05 22:21 | 41.33472 | -71.38428 | 27641 ft | 429 kts | 231° |
| 2026-05-05 22:22 | 41.31488 | -71.41407 | 27947 ft | 431 kts | 231° |
| 2026-05-05 22:22 | 41.29494 | -71.44398 | 28308 ft | 432 kts | 231° |
| 2026-05-05 22:22 | 41.27497 | -71.47389 | 28751 ft | 431 kts | 231° |
| 2026-05-05 22:22 | 41.25503 | -71.50365 | 29188 ft | 431 kts | 231° |
| 2026-05-05 22:23 | 41.23526 | -71.53309 | 29624 ft | 430 kts | 231° |
| 2026-05-05 22:23 | 41.21532 | -71.56279 | 30057 ft | 430 kts | 231° |
| 2026-05-05 22:23 | 41.19547 | -71.59238 | 30501 ft | 427 kts | 232° |
| 2026-05-05 22:23 | 41.17571 | -71.62181 | 30910 ft | 426 kts | 232° |
| 2026-05-05 22:24 | 41.15597 | -71.65119 | 31287 ft | 426 kts | 232° |
| 2026-05-05 22:24 | 41.13623 | -71.68047 | 31658 ft | 426 kts | 232° |
| 2026-05-05 22:24 | 41.11649 | -71.70972 | 32009 ft | 426 kts | 232° |
| 2026-05-05 22:24 | 41.09669 | -71.73904 | 32370 ft | 426 kts | 232° |
| 2026-05-05 22:25 | 41.07695 | -71.76829 | 32740 ft | 426 kts | 232° |
| 2026-05-05 22:25 | 41.05717 | -71.79761 | 33117 ft | 426 kts | 232° |
| 2026-05-05 22:25 | 41.03743 | -71.82685 | 33498 ft | 426 kts | 233° |
| 2026-05-05 22:25 | 41.01793 | -71.85571 | 33856 ft | 426 kts | 233° |
| 2026-05-05 22:26 | 40.99813 | -71.88502 | 33932 ft | 429 kts | 233° |
| 2026-05-05 22:26 | 40.95778 | -71.94466 | 33944 ft | 440 kts | 233° |
| 2026-05-05 22:27 | 40.91656 | -72.00510 | 33944 ft | 442 kts | 233° |
| 2026-05-05 22:27 | 40.88222 | -72.05534 | 33945 ft | 442 kts | 233° |
| 2026-05-05 22:28 | 40.84099 | -72.11574 | 33948 ft | 442 kts | 233° |
| 2026-05-05 22:28 | 40.79999 | -72.17582 | 33949 ft | 442 kts | 233° |
| 2026-05-05 22:29 | 40.75876 | -72.23613 | 33949 ft | 443 kts | 233° |
| 2026-05-05 22:29 | 40.71736 | -72.29636 | 33947 ft | 443 kts | 233° |
| 2026-05-05 22:30 | 40.67601 | -72.35632 | 33945 ft | 444 kts | 233° |
| 2026-05-05 22:30 | 40.63452 | -72.41647 | 33954 ft | 444 kts | 233° |
| 2026-05-05 22:31 | 40.59291 | -72.47676 | 33948 ft | 445 kts | 233° |
| 2026-05-05 22:31 | 40.55124 | -72.53700 | 33945 ft | 445 kts | 233° |
| 2026-05-05 22:32 | 40.50944 | -72.59721 | 33953 ft | 446 kts | 233° |
| 2026-05-05 22:32 | 40.46787 | -72.65689 | 33975 ft | 444 kts | 233° |
| 2026-05-05 22:33 | 40.42621 | -72.71669 | 33968 ft | 444 kts | 233° |
| 2026-05-05 22:33 | 40.38451 | -72.77653 | 33973 ft | 444 kts | 233° |
| 2026-05-05 22:34 | 40.34281 | -72.83623 | 33968 ft | 444 kts | 233° |
| 2026-05-05 22:34 | 40.30104 | -72.89593 | 33972 ft | 444 kts | 233° |
| 2026-05-05 22:35 | 40.25945 | -72.95522 | 33938 ft | 445 kts | 233° |
| 2026-05-05 22:35 | 40.21753 | -73.01481 | 33964 ft | 444 kts | 233° |
| 2026-05-05 22:36 | 40.17550 | -73.07432 | 33977 ft | 444 kts | 233° |
| 2026-05-05 22:36 | 40.13359 | -73.13370 | 33973 ft | 443 kts | 233° |
| 2026-05-05 22:37 | 40.09184 | -73.19282 | 33967 ft | 443 kts | 233° |
| 2026-05-05 22:37 | 40.05013 | -73.25158 | 33959 ft | 444 kts | 233° |
| 2026-05-05 22:38 | 40.00805 | -73.31075 | 33963 ft | 444 kts | 233° |
| 2026-05-05 22:38 | 39.96596 | -73.36993 | 33970 ft | 444 kts | 233° |
| 2026-05-05 22:39 | 39.92401 | -73.42885 | 33958 ft | 443 kts | 233° |
| 2026-05-05 22:39 | 39.88220 | -73.48742 | 33963 ft | 444 kts | 233° |
| 2026-05-05 22:40 | 39.83917 | -73.54539 | 33959 ft | 449 kts | 226° |
| 2026-05-05 22:40 | 39.79154 | -73.59827 | 33965 ft | 450 kts | 226° |
| 2026-05-05 22:41 | 39.74389 | -73.65122 | 33953 ft | 450 kts | 226° |
| 2026-05-05 22:41 | 39.69647 | -73.70399 | 33976 ft | 448 kts | 227° |
| 2026-05-05 22:42 | 39.64906 | -73.75646 | 33984 ft | 447 kts | 227° |
| 2026-05-05 22:42 | 39.60177 | -73.80872 | 33979 ft | 447 kts | 227° |
| 2026-05-05 22:43 | 39.55479 | -73.86059 | 33982 ft | 446 kts | 227° |
| 2026-05-05 22:43 | 39.50747 | -73.91273 | 33989 ft | 446 kts | 227° |
| 2026-05-05 22:44 | 39.46011 | -73.96478 | 33978 ft | 446 kts | 227° |
| 2026-05-05 22:44 | 39.41274 | -74.01670 | 33986 ft | 446 kts | 227° |
| 2026-05-05 22:45 | 39.36570 | -74.06819 | 33985 ft | 445 kts | 227° |
| 2026-05-05 22:45 | 39.31842 | -74.11987 | 33979 ft | 445 kts | 227° |
| 2026-05-05 22:46 | 39.27108 | -74.17142 | 33983 ft | 445 kts | 227° |
| 2026-05-05 22:46 | 39.22398 | -74.22265 | 33981 ft | 445 kts | 227° |
| 2026-05-05 22:47 | 39.17666 | -74.27404 | 33971 ft | 445 kts | 227° |
| 2026-05-05 22:47 | 39.12907 | -74.32563 | 33974 ft | 446 kts | 227° |
| 2026-05-05 22:48 | 39.08151 | -74.37711 | 33974 ft | 446 kts | 227° |
| 2026-05-05 22:48 | 39.04044 | -74.43391 | 34009 ft | 426 kts | 248° |
| 2026-05-05 22:48 | 39.02940 | -74.46850 | 33997 ft | 413 kts | 262° |
| 2026-05-05 22:49 | 39.02321 | -74.50440 | 33989 ft | 411 kts | 263° |
| 2026-05-05 22:49 | 39.01142 | -74.57654 | 33983 ft | 411 kts | 263° |
| 2026-05-05 22:49 | 39.00555 | -74.61254 | 33843 ft | 412 kts | 263° |
| 2026-05-05 22:50 | 38.99965 | -74.64858 | 33552 ft | 412 kts | 263° |
| 2026-05-05 22:50 | 38.99363 | -74.68476 | 33279 ft | 414 kts | 263° |
| 2026-05-05 22:50 | 38.98756 | -74.72097 | 33012 ft | 415 kts | 263° |
| 2026-05-05 22:50 | 38.98156 | -74.75679 | 32750 ft | 416 kts | 262° |
| 2026-05-05 22:51 | 38.97543 | -74.79329 | 32488 ft | 418 kts | 262° |
| 2026-05-05 22:51 | 38.96926 | -74.82981 | 31729 ft | 420 kts | 262° |
| 2026-05-05 22:51 | 38.96301 | -74.86675 | 30907 ft | 422 kts | 261° |
| 2026-05-05 22:51 | 38.95676 | -74.90386 | 29959 ft | 427 kts | 260° |
| 2026-05-05 22:52 | 38.95048 | -74.94130 | 29065 ft | 428 kts | 260° |
| 2026-05-05 22:52 | 38.94424 | -74.97836 | 28565 ft | 420 kts | 260° |
| 2026-05-05 22:52 | 38.93816 | -75.01426 | 27996 ft | 415 kts | 260° |
| 2026-05-05 22:52 | 38.93198 | -75.05067 | 27410 ft | 410 kts | 259° |
| 2026-05-05 22:53 | 38.92598 | -75.08577 | 26813 ft | 406 kts | 258° |
| 2026-05-05 22:53 | 38.91991 | -75.12100 | 26250 ft | 402 kts | 258° |
| 2026-05-05 22:53 | 38.91392 | -75.15588 | 25682 ft | 398 kts | 258° |
| 2026-05-05 22:53 | 38.90797 | -75.19047 | 25110 ft | 395 kts | 258° |
| 2026-05-05 22:54 | 38.90207 | -75.22481 | 24569 ft | 392 kts | 258° |
| 2026-05-05 22:54 | 38.89620 | -75.25905 | 24010 ft | 390 kts | 258° |
| 2026-05-05 22:54 | 38.89039 | -75.29306 | 23441 ft | 388 kts | 258° |
| 2026-05-05 22:54 | 38.88467 | -75.32638 | 22852 ft | 386 kts | 258° |
| 2026-05-05 22:55 | 38.87892 | -75.35979 | 22325 ft | 382 kts | 257° |
| 2026-05-05 22:55 | 38.87318 | -75.39299 | 21800 ft | 379 kts | 257° |
| 2026-05-05 22:55 | 38.86747 | -75.42581 | 21313 ft | 375 kts | 257° |
| 2026-05-05 22:55 | 38.86178 | -75.45840 | 20820 ft | 373 kts | 257° |
| 2026-05-05 22:56 | 38.85614 | -75.49078 | 20352 ft | 370 kts | 257° |
| 2026-05-05 22:56 | 38.85057 | -75.52287 | 19893 ft | 367 kts | 257° |
| 2026-05-05 22:56 | 38.84502 | -75.55483 | 19437 ft | 364 kts | 257° |
| 2026-05-05 22:56 | 38.83956 | -75.58608 | 18995 ft | 361 kts | 256° |
| 2026-05-05 22:57 | 38.83406 | -75.61744 | 18523 ft | 359 kts | 256° |
| 2026-05-05 22:57 | 38.82859 | -75.64857 | 18027 ft | 356 kts | 256° |
| 2026-05-05 22:57 | 38.82316 | -75.67932 | 17630 ft | 349 kts | 256° |
| 2026-05-05 22:57 | 38.81780 | -75.70959 | 17158 ft | 345 kts | 256° |
| 2026-05-05 22:58 | 38.81252 | -75.73943 | 16679 ft | 341 kts | 256° |
| 2026-05-05 22:58 | 38.80729 | -75.76896 | 16191 ft | 338 kts | 256° |
| 2026-05-05 22:58 | 38.80218 | -75.79790 | 15719 ft | 335 kts | 256° |
| 2026-05-05 22:58 | 38.79705 | -75.82699 | 15228 ft | 333 kts | 257° |
| 2026-05-05 22:59 | 38.79194 | -75.85601 | 14735 ft | 331 kts | 257° |
| 2026-05-05 22:59 | 38.78685 | -75.88469 | 14244 ft | 329 kts | 257° |
| 2026-05-05 22:59 | 38.78178 | -75.91314 | 13757 ft | 326 kts | 257° |
| 2026-05-05 22:59 | 38.77674 | -75.94141 | 13212 ft | 324 kts | 257° |
| 2026-05-05 23:00 | 38.76680 | -75.99676 | 12247 ft | 317 kts | 257° |
| 2026-05-05 23:00 | 38.76187 | -76.02415 | 11766 ft | 314 kts | 257° |
| 2026-05-05 23:00 | 38.75717 | -76.05138 | 11282 ft | 311 kts | 260° |
| 2026-05-05 23:01 | 38.75592 | -76.07878 | 10997 ft | 304 kts | 271° |
| 2026-05-05 23:01 | 38.75819 | -76.10480 | 10865 ft | 282 kts | 275° |
| 2026-05-05 23:01 | 38.76054 | -76.12887 | 10741 ft | 262 kts | 274° |
| 2026-05-05 23:01 | 38.76269 | -76.15165 | 10627 ft | 253 kts | 274° |
| 2026-05-05 23:02 | 38.76472 | -76.17352 | 10402 ft | 249 kts | 274° |
| 2026-05-05 23:02 | 38.76674 | -76.19548 | 10157 ft | 247 kts | 274° |
| 2026-05-05 23:02 | 38.76874 | -76.21732 | 9965 ft | 245 kts | 274° |
| 2026-05-05 23:02 | 38.77074 | -76.23899 | 10000 ft | 246 kts | 274° |
| 2026-05-05 23:03 | 38.77275 | -76.26082 | 10030 ft | 247 kts | 274° |
| 2026-05-05 23:03 | 38.77476 | -76.28270 | 10034 ft | 247 kts | 274° |
| 2026-05-05 23:03 | 38.77676 | -76.30434 | 10033 ft | 247 kts | 274° |
| 2026-05-05 23:03 | 38.77881 | -76.32621 | 10032 ft | 247 kts | 274° |
| 2026-05-05 23:04 | 38.78085 | -76.34804 | 10023 ft | 247 kts | 274° |
| 2026-05-05 23:04 | 38.78288 | -76.36989 | 10023 ft | 247 kts | 274° |
| 2026-05-05 23:04 | 38.78488 | -76.39179 | 10018 ft | 247 kts | 274° |
| 2026-05-05 23:04 | 38.78688 | -76.41371 | 10026 ft | 247 kts | 274° |
| 2026-05-05 23:05 | 38.78887 | -76.43559 | 10025 ft | 247 kts | 274° |
| 2026-05-05 23:05 | 38.79086 | -76.45752 | 10025 ft | 247 kts | 274° |
| 2026-05-05 23:05 | 38.79282 | -76.47915 | 10010 ft | 247 kts | 274° |
| 2026-05-05 23:05 | 38.79481 | -76.50105 | 10014 ft | 247 kts | 274° |
| 2026-05-05 23:06 | 38.79682 | -76.52304 | 10019 ft | 251 kts | 274° |
| 2026-05-05 23:06 | 38.79858 | -76.54541 | 9909 ft | 253 kts | 272° |
| 2026-05-05 23:06 | 38.79959 | -76.56780 | 9661 ft | 249 kts | 270° |
| 2026-05-05 23:06 | 38.80024 | -76.58989 | 9423 ft | 247 kts | 269° |
| 2026-05-05 23:07 | 38.80081 | -76.61195 | 9199 ft | 247 kts | 269° |
| 2026-05-05 23:07 | 38.80143 | -76.63374 | 8973 ft | 246 kts | 269° |
| 2026-05-05 23:07 | 38.80209 | -76.65564 | 8752 ft | 246 kts | 269° |
| 2026-05-05 23:07 | 38.80275 | -76.67752 | 8529 ft | 245 kts | 268° |
| 2026-05-05 23:08 | 38.80342 | -76.69936 | 8307 ft | 244 kts | 268° |
| 2026-05-05 23:08 | 38.80412 | -76.72116 | 8081 ft | 245 kts | 268° |
| 2026-05-05 23:08 | 38.80483 | -76.74303 | 7858 ft | 245 kts | 268° |
| 2026-05-05 23:08 | 38.80590 | -76.76489 | 7630 ft | 248 kts | 275° |
| 2026-05-05 23:09 | 38.81098 | -76.78621 | 7410 ft | 254 kts | 290° |
| 2026-05-05 23:09 | 38.82073 | -76.80510 | 7180 ft | 261 kts | 302° |
| 2026-05-05 23:09 | 38.83213 | -76.82328 | 6951 ft | 261 kts | 302° |
| 2026-05-05 23:09 | 38.84348 | -76.84148 | 6710 ft | 262 kts | 301° |
| 2026-05-05 23:10 | 38.85489 | -76.85981 | 6460 ft | 263 kts | 301° |
| 2026-05-05 23:10 | 38.86631 | -76.87817 | 6235 ft | 263 kts | 301° |
| 2026-05-05 23:10 | 38.87779 | -76.89648 | 6052 ft | 263 kts | 304° |
| 2026-05-05 23:10 | 38.89072 | -76.91327 | 6015 ft | 265 kts | 308° |
| 2026-05-05 23:11 | 38.90382 | -76.92997 | 5862 ft | 268 kts | 308° |
| 2026-05-05 23:11 | 38.91695 | -76.94680 | 5345 ft | 266 kts | 308° |
| 2026-05-05 23:11 | 38.92977 | -76.96309 | 5092 ft | 251 kts | 308° |
| 2026-05-05 23:11 | 38.94205 | -76.97870 | 4840 ft | 246 kts | 308° |
| 2026-05-05 23:12 | 38.95407 | -76.99406 | 4588 ft | 245 kts | 308° |
| 2026-05-05 23:12 | 38.96611 | -77.00951 | 4353 ft | 244 kts | 308° |
| 2026-05-05 23:12 | 38.97806 | -77.02485 | 4138 ft | 242 kts | 307° |
| 2026-05-05 23:12 | 38.99001 | -77.04021 | 3897 ft | 242 kts | 307° |
| 2026-05-05 23:13 | 39.00174 | -77.05529 | 3694 ft | 241 kts | 307° |
| 2026-05-05 23:13 | 39.01376 | -77.07077 | 3463 ft | 241 kts | 307° |
| 2026-05-05 23:13 | 39.02547 | -77.08582 | 3300 ft | 240 kts | 307° |
| 2026-05-05 23:13 | 39.03684 | -77.10158 | 3217 ft | 227 kts | 294° |
| 2026-05-05 23:14 | 39.04003 | -77.11910 | 3144 ft | 191 kts | 252° |
| 2026-05-05 23:14 | 39.03334 | -77.13223 | 3080 ft | 175 kts | 213° |
| 2026-05-05 23:14 | 39.02165 | -77.13631 | 3026 ft | 178 kts | 188° |
| 2026-05-05 23:14 | 39.00955 | -77.13833 | 2953 ft | 175 kts | 196° |
| 2026-05-05 23:15 | 39.00171 | -77.14067 | 2903 ft | 174 kts | 197° |
| 2026-05-05 23:15 | 38.98988 | -77.14449 | 2828 ft | 175 kts | 198° |
| 2026-05-05 23:15 | 38.97421 | -77.14944 | 2729 ft | 176 kts | 194° |
| 2026-05-05 23:15 | 38.96194 | -77.14803 | 2704 ft | 187 kts | 162° |
| 2026-05-05 23:16 | 38.95443 | -77.14187 | 2495 ft | 198 kts | 149° |
| 2026-05-05 23:16 | 38.94309 | -77.13034 | 2062 ft | 205 kts | 148° |
| 2026-05-05 23:16 | 38.93204 | -77.11978 | 2104 ft | 192 kts | 153° |
| 2026-05-05 23:16 | 38.92105 | -77.11056 | 1831 ft | 186 kts | 157° |
| 2026-05-05 23:17 | 38.91116 | -77.10088 | 1514 ft | 174 kts | 142° |
| 2026-05-05 23:17 | 38.90387 | -77.08877 | 1172 ft | 166 kts | 130° |
| 2026-05-05 23:17 | 38.89948 | -77.07547 | 1022 ft | 159 kts | 111° |
| 2026-05-05 23:17 | 38.89469 | -77.06327 | 729 ft | 148 kts | 139° |
| 2026-05-05 23:18 | 38.88783 | -77.05422 | 771 ft | 138 kts | 147° |
| 2026-05-05 23:18 | 38.88090 | -77.04609 | 609 ft | 133 kts | 147° |
| 2026-05-05 23:18 | 38.87346 | -77.03978 | 405 ft | 123 kts | 171° |
| 2026-05-05 23:18 | 38.86491 | -77.03910 | 169 ft | 128 kts | 180° |
| 2026-05-05 23:19 | 38.85689 | -77.03826 | 26 ft | 117 kts | 176° |
| 2026-05-05 23:19 | 38.85229 | -77.03801 | 22 ft | 43 kts | 174° |
| 2026-05-05 23:19 | 38.85156 | -77.03787 | 24 ft | 0 kts | 170° |
| 2026-05-05 23:19 | 38.85105 | -77.03775 | 24 ft | 12 kts | 170° |
| 2026-05-05 23:20 | 38.85023 | -77.03761 | 23 ft | 8 kts | 174° |
| 2026-05-05 23:20 | 38.84982 | -77.03757 | 23 ft | 6 kts | 176° |
| 2026-05-05 23:20 | 38.84924 | -77.03767 | 22 ft | 11 kts | 203° |
| 2026-05-05 23:20 | 38.84882 | -77.03822 | 21 ft | 0 kts | 242° |
| 2026-05-05 23:21 | 38.84880 | -77.03826 | 21 ft | 0 kts | 242° |
| 2026-05-05 23:21 | 38.85792 | -77.04266 | 30 ft | 0 kts | 248° |
| 2026-05-05 23:25 | 38.85792 | -77.04267 | 28 ft | 0 kts | 248° |